Time;durP1;ratioP1;P1;durP2;ratioP2;P2;SDS_P1;SDS_P2;PMS_P1;PMS_P2;Temp;Humidity;BMP_temperature;BMP_pressure;BME280_temperature;BME280_humidity;BME280_pressure;Samples;Min_cycle;Max_cycle;Signal;HPM_P1;HPM_P2
2023/07/01 00:00:59;;;;;;;3.20;1.50;;;17.10;99.90;;;;;;4880081;29;19919;-73
2023/07/01 00:03:24;;;;;;;3.25;1.20;;;17.10;99.90;;;;;;4895591;29;20036;-73
2023/07/01 00:05:50;;;;;;;2.17;0.90;;;17.10;99.90;;;;;;4886511;29;20044;-73
2023/07/01 00:08:16;;;;;;;2.20;1.15;;;17.10;99.90;;;;;;4897210;29;20040;-72
2023/07/01 00:10:42;;;;;;;4.20;1.48;;;17.10;99.90;;;;;;4888406;29;20187;-72
2023/07/01 00:13:08;;;;;;;2.25;1.00;;;17.10;99.90;;;;;;4877583;29;20044;-72
2023/07/01 00:15:34;;;;;;;3.08;1.42;;;17.10;99.90;;;;;;4896194;29;20495;-73
2023/07/01 00:18:00;;;;;;;3.22;1.00;;;17.10;99.90;;;;;;4895137;29;20048;-73
2023/07/01 00:20:26;;;;;;;2.35;1.10;;;17.10;98.70;;;;;;4880012;29;20059;-73
2023/07/01 00:22:53;;;;;;;1.92;1.00;;;17.10;95.90;;;;;;4870864;29;20069;-72
2023/07/01 00:25:19;;;;;;;5.55;1.38;;;17.10;86.40;;;;;;4875472;29;20243;-72
2023/07/01 00:27:45;;;;;;;3.20;1.55;;;17.10;82.20;;;;;;4889561;29;20480;-72
2023/07/01 00:30:11;;;;;;;2.70;1.20;;;17.10;66.60;;;;;;4892327;29;20047;-72
2023/07/01 00:32:36;;;;;;;;;;;17.10;61.50;;;;;;4862322;29;20470;-72
2023/07/01 00:35:02;;;;;;;2.92;1.38;;;17.10;54.50;;;;;;4893534;29;19934;-72
2023/07/01 00:37:30;;;;;;;4.28;1.40;;;17.10;68.40;;;;;;4879782;29;20050;-72
2023/07/01 00:39:56;;;;;;;2.78;1.20;;;17.10;75.30;;;;;;4887178;29;20142;-72
2023/07/01 00:42:22;;;;;;;3.25;1.20;;;17.10;93.00;;;;;;4895015;29;20091;-73
2023/07/01 00:44:47;;;;;;;3.10;1.27;;;17.10;91.70;;;;;;4884303;29;20127;-73
2023/07/01 00:47:13;;;;;;;2.40;1.20;;;17.10;94.90;;;;;;4869321;29;20044;-73
2023/07/01 00:49:40;;;;;;;3.70;1.50;;;17.10;96.10;;;;;;4879297;29;20060;-73
2023/07/01 00:52:07;;;;;;;3.60;1.40;;;17.10;99.90;;;;;;4889957;29;20779;-73
2023/07/01 00:54:34;;;;;;;2.38;1.30;;;17.10;99.90;;;;;;4895526;29;20139;-73
2023/07/01 00:57:03;;;;;;;4.22;1.45;;;17.10;99.90;;;;;;4890172;29;20059;-73
2023/07/01 00:59:33;;;;;;;3.17;1.30;;;17.10;99.90;;;;;;4889298;29;20400;-73
2023/07/01 01:02:10;;;;;;;2.33;1.20;;;17.10;99.90;;;;;;4892642;29;20044;-73
2023/07/01 01:04:44;;;;;;;2.38;1.00;;;17.10;99.90;;;;;;4895158;29;20044;-73
2023/07/01 01:07:31;;;;;;;4.55;0.90;;;17.10;99.90;;;;;;4895162;29;20044;-73
2023/07/01 01:10:07;;;;;;;3.42;1.10;;;17.10;99.90;;;;;;4887291;29;20074;-73
2023/07/01 01:12:34;;;;;;;4.50;1.20;;;17.10;99.90;;;;;;4895604;29;20135;-73
2023/07/01 01:15:01;;;;;;;3.08;1.25;;;17.10;99.90;;;;;;4889299;29;20052;-74
2023/07/01 01:17:31;;;;;;;2.80;1.20;;;17.10;99.90;;;;;;4885752;29;20048;-73
2023/07/01 01:20:12;;;;;;;3.10;1.30;;;17.10;99.90;;;;;;4870461;29;20048;-73
2023/07/01 01:22:51;;;;;;;2.47;1.13;;;17.10;99.90;;;;;;4882694;29;20047;-73
2023/07/01 01:25:24;;;;;;;2.75;1.30;;;17.10;99.90;;;;;;4884073;29;20044;-73
2023/07/01 01:27:52;;;;;;;3.38;1.45;;;17.10;99.90;;;;;;4885963;29;20432;-73
2023/07/01 01:30:21;;;;;;;4.97;1.30;;;17.10;99.90;;;;;;4883397;29;20052;-74
2023/07/01 01:32:47;;;;;;;4.78;1.55;;;17.20;99.90;;;;;;4869854;29;20104;-73
2023/07/01 01:35:12;;;;;;;;;;;17.20;1.00;;;;;;4895944;29;20572;-73
2023/07/01 01:37:53;;;;;;;3.88;1.67;;;17.10;70.70;;;;;;4884725;29;19947;-74
2023/07/01 01:40:31;;;;;;;5.03;1.70;;;17.00;99.90;;;;;;4868253;29;20054;-74
2023/07/01 01:43:08;;;;;;;4.05;1.50;;;16.90;99.90;;;;;;4889064;29;20465;-74
2023/07/01 01:45:34;;;;;;;3.83;1.50;;;16.90;99.90;;;;;;4895576;29;20123;-74
2023/07/01 01:48:01;;;;;;;4.28;1.50;;;16.80;1.00;;;;;;4871809;29;20055;-74
2023/07/01 01:50:27;;;;;;;3.28;1.73;;;16.70;21.50;;;;;;4894357;29;20080;-73
2023/07/01 01:52:54;;;;;;;3.92;1.55;;;16.60;99.90;;;;;;4879863;29;20051;-73
2023/07/01 01:55:21;;;;;;;5.03;2.00;;;16.60;99.90;;;;;;4895532;29;20060;-74
2023/07/01 01:57:47;;;;;;;3.20;1.55;;;16.50;99.90;;;;;;4897426;29;20168;-74
2023/07/01 02:00:13;;;;;;;;;;;16.40;99.90;;;;;;4885198;29;20048;-74
2023/07/01 02:02:39;;;;;;;7.50;1.83;;;16.40;99.90;;;;;;4870423;29;19931;-74
2023/07/01 02:05:05;;;;;;;5.45;1.50;;;16.30;99.90;;;;;;4894101;29;20041;-74
2023/07/01 02:07:31;;;;;;;4.22;1.63;;;16.20;99.90;;;;;;4883349;29;20132;-74
2023/07/01 02:09:57;;;;;;;3.55;1.63;;;16.20;99.90;;;;;;4895997;29;20091;-74
2023/07/01 02:12:23;;;;;;;2.78;1.33;;;16.10;1.00;;;;;;4899538;29;20047;-74
2023/07/01 02:14:49;;;;;;;4.03;1.85;;;16.10;1.00;;;;;;4883982;29;21712;-74
2023/07/01 02:17:15;;;;;;;2.88;1.52;;;16.10;1.00;;;;;;4899224;29;20048;-74
2023/07/01 02:19:40;;;;;;;1.98;1.27;;;16.00;1.00;;;;;;4897471;29;20051;-74
2023/07/01 02:22:06;;;;;;;2.20;1.23;;;16.00;1.00;;;;;;4899158;29;20269;-73
2023/07/01 02:24:32;;;;;;;2.38;1.10;;;16.00;1.00;;;;;;4888584;29;20136;-74
2023/07/01 02:26:59;;;;;;;2.22;1.30;;;16.00;99.90;;;;;;4893497;29;20067;-73
2023/07/01 02:29:25;;;;;;;3.13;1.30;;;16.00;1.00;;;;;;4877008;29;20429;-74
2023/07/01 02:31:50;;;;;;;2.13;1.20;;;16.00;1.00;;;;;;4884302;29;20041;-74
2023/07/01 02:34:27;;;;;;;2.75;1.40;;;15.90;1.00;;;;;;4876057;29;20583;-74
2023/07/01 02:36:54;;;;;;;1.77;1.05;;;15.90;99.90;;;;;;4878325;29;20107;-74
2023/07/01 02:39:19;;;;;;;3.65;1.27;;;16.00;99.90;;;;;;4890317;29;20043;-73
2023/07/01 02:41:45;;;;;;;3.47;1.42;;;15.90;99.90;;;;;;4882620;29;20045;-73
2023/07/01 02:44:11;;;;;;;2.83;1.52;;;16.00;99.90;;;;;;4889955;29;20080;-73
2023/07/01 02:46:37;;;;;;;3.95;1.98;;;16.00;99.90;;;;;;4869344;29;20055;-74
2023/07/01 02:49:04;;;;;;;5.60;2.00;;;16.00;99.90;;;;;;4888047;29;20040;-75
2023/07/01 02:51:29;;;;;;;3.38;1.60;;;16.10;99.90;;;;;;4895250;29;20096;-74
2023/07/01 02:53:55;;;;;;;3.10;1.52;;;16.10;99.90;;;;;;4884760;29;20044;-74
2023/07/01 02:56:21;;;;;;;7.72;2.15;;;16.20;73.10;;;;;;4886542;29;20056;-74
2023/07/01 02:58:47;;;;;;;4.68;2.05;;;16.30;99.90;;;;;;4886802;29;20144;-73
2023/07/01 03:01:13;;;;;;;3.33;2.00;;;16.40;99.90;;;;;;4907782;29;20044;-74
2023/07/01 03:03:40;;;;;;;3.05;1.80;;;16.40;99.90;;;;;;4889112;29;20052;-76
2023/07/01 03:06:06;;;;;;;6.07;2.17;;;16.40;99.90;;;;;;4888800;29;20047;-76
2023/07/01 03:08:32;;;;;;;3.75;2.30;;;16.50;99.90;;;;;;4891083;29;20056;-76
2023/07/01 03:10:57;;;;;;;3.55;2.30;;;16.50;99.90;;;;;;4867425;29;20047;-76
2023/07/01 03:13:23;;;;;;;2.97;1.80;;;16.50;99.90;;;;;;4893425;29;20506;-76
2023/07/01 03:15:50;;;;;;;3.75;1.55;;;16.50;99.90;;;;;;4883054;29;20051;-76
2023/07/01 03:18:15;;;;;;;3.10;1.80;;;16.50;99.90;;;;;;4873356;29;20047;-76
2023/07/01 03:20:44;;;;;;;4.20;2.63;;;16.40;1.00;;;;;;4896267;29;20051;-76
2023/07/01 03:23:10;;;;;;;3.80;2.20;;;16.40;1.00;;;;;;4877173;29;20435;-76
2023/07/01 03:25:36;;;;;;;4.13;2.40;;;16.40;1.00;;;;;;4891288;29;20067;-76
2023/07/01 03:28:02;;;;;;;3.90;2.40;;;16.30;1.00;;;;;;4896141;29;20044;-76
2023/07/01 03:30:30;;;;;;;5.78;2.33;;;16.20;1.00;;;;;;4890549;29;20111;-75
2023/07/01 03:32:56;;;;;;;3.15;2.08;;;16.10;1.00;;;;;;4884654;29;20195;-76
2023/07/01 03:35:22;;;;;;;;;;;16.10;1.00;;;;;;4896298;29;20083;-76
2023/07/01 03:37:48;;;;;;;5.38;2.53;;;16.10;1.00;;;;;;4882223;29;19926;-76
2023/07/01 03:40:14;;;;;;;3.80;2.15;;;16.00;48.40;;;;;;4914899;29;20050;-75
2023/07/01 03:42:40;;;;;;;4.28;2.35;;;16.00;64.50;;;;;;4882414;29;20461;-75
2023/07/01 03:45:08;;;;;;;6.65;2.42;;;16.00;56.00;;;;;;4892412;29;20070;-76
2023/07/01 03:47:44;;;;;;;4.35;2.50;;;15.90;97.10;;;;;;4890344;29;20040;-76
2023/07/01 03:50:11;;;;;;;2.47;1.98;;;15.90;81.80;;;;;;4891844;29;20061;-76
2023/07/01 03:52:38;;;;;;;5.53;2.10;;;15.90;73.90;;;;;;4883138;29;20040;-76
2023/07/01 03:55:05;;;;;;;3.17;1.80;;;15.90;72.80;;;;;;4890818;29;20059;-76
2023/07/01 03:57:31;;;;;;;3.92;2.03;;;15.90;94.80;;;;;;4871651;29;20048;-75
2023/07/01 03:59:57;;;;;;;2.35;1.60;;;15.90;99.90;;;;;;4875451;29;21062;-75
2023/07/01 04:02:22;;;;;;;3.70;2.17;;;15.90;99.90;;;;;;4896660;29;20080;-76
2023/07/01 04:04:48;;;;;;;3.85;1.90;;;15.90;99.90;;;;;;4876228;29;20400;-75
2023/07/01 04:07:14;;;;;;;3.35;1.88;;;15.90;99.90;;;;;;4888700;29;20048;-75
2023/07/01 04:09:40;;;;;;;3.35;2.00;;;15.90;99.90;;;;;;4868522;29;20124;-76
2023/07/01 04:12:06;;;;;;;3.88;2.22;;;15.90;11.90;;;;;;4881529;29;20071;-76
2023/07/01 04:14:31;;;;;;;3.85;2.22;;;15.90;99.90;;;;;;4888522;29;20044;-76
2023/07/01 04:16:57;;;;;;;4.43;2.33;;;15.90;58.00;;;;;;4881365;29;20040;-76
2023/07/01 04:19:23;;;;;;;3.03;1.70;;;15.90;99.90;;;;;;4888187;29;20076;-75
2023/07/01 04:21:48;;;;;;;3.70;2.10;;;15.90;99.90;;;;;;4885708;29;20062;-75
2023/07/01 04:24:14;;;;;;;3.15;1.90;;;16.00;83.10;;;;;;4882552;29;20408;-75
2023/07/01 04:26:41;;;;;;;3.38;2.00;;;16.00;99.10;;;;;;4886976;29;20472;-75
2023/07/01 04:29:09;;;;;;;2.40;1.50;;;16.00;45.80;;;;;;4886479;29;20044;-75
2023/07/01 04:31:35;;;;;;;2.42;1.60;;;16.00;75.40;;;;;;4881041;29;20050;-75
2023/07/01 04:34:00;;;;;;;3.08;1.52;;;16.10;68.80;;;;;;4873663;29;20051;-75
2023/07/01 04:36:26;;;;;;;3.83;1.92;;;16.10;75.20;;;;;;4865085;29;20056;-75
2023/07/01 04:38:52;;;;;;;3.30;1.67;;;16.20;32.40;;;;;;4884676;29;20072;-75
2023/07/01 04:41:18;;;;;;;;;;;16.20;29.80;;;;;;4883404;29;20060;-75
2023/07/01 04:43:44;;;;;;;2.63;1.98;;;16.20;12.30;;;;;;4883224;29;19937;-75
2023/07/01 04:46:09;;;;;;;4.45;2.20;;;16.30;17.90;;;;;;4891786;29;20480;-75
2023/07/01 04:48:35;;;;;;;2.88;1.88;;;16.30;2.10;;;;;;4889329;29;20039;-75
2023/07/01 04:51:01;;;;;;;3.65;2.00;;;16.30;3.60;;;;;;4890157;29;20507;-76
2023/07/01 04:53:26;;;;;;;3.70;1.98;;;16.30;1.00;;;;;;4892793;29;20047;-77
2023/07/01 04:55:52;;;;;;;3.58;1.98;;;16.40;38.40;;;;;;4884689;29;20084;-77
2023/07/01 04:58:18;;;;;;;3.00;1.80;;;16.40;59.80;;;;;;4868353;29;20052;-76
2023/07/01 05:00:44;;;;;;;3.92;2.00;;;16.40;21.60;;;;;;4885562;29;20048;-76
2023/07/01 05:03:10;;;;;;;3.65;2.00;;;16.40;97.30;;;;;;4892432;29;20485;-76
2023/07/01 05:05:36;;;;;;;3.38;2.00;;;16.40;99.90;;;;;;4891521;29;20140;-77
2023/07/01 05:08:01;;;;;;;4.75;2.13;;;16.40;97.80;;;;;;4842686;29;20071;-76
2023/07/01 05:10:27;;;;;;;3.88;2.50;;;16.40;99.90;;;;;;4885722;29;20040;-78
2023/07/01 05:12:53;;;;;;;4.10;2.67;;;16.50;99.90;;;;;;4880125;29;20044;-76
2023/07/01 05:15:18;;;;;;;3.88;2.47;;;16.50;99.90;;;;;;4868162;29;20143;-76
2023/07/01 05:17:44;;;;;;;4.38;2.53;;;16.50;99.90;;;;;;4894319;29;20543;-77
2023/07/01 05:20:10;;;;;;;3.85;2.80;;;16.50;99.90;;;;;;4878110;29;20143;-77
2023/07/01 05:22:36;;;;;;;5.97;3.20;;;16.50;99.90;;;;;;4888152;29;20179;-77
2023/07/01 05:25:03;;;;;;;4.03;2.65;;;16.50;99.90;;;;;;4892967;29;20147;-76
2023/07/01 05:27:30;;;;;;;3.78;2.25;;;16.50;99.90;;;;;;4883993;29;20425;-77
2023/07/01 05:29:57;;;;;;;4.63;2.58;;;16.50;99.90;;;;;;4892470;29;20403;-77
2023/07/01 05:32:23;;;;;;;4.38;2.30;;;16.50;99.90;;;;;;4887952;29;20055;-77
2023/07/01 05:34:48;;;;;;;4.15;2.53;;;16.60;99.90;;;;;;4891982;29;20130;-77
2023/07/01 05:37:15;;;;;;;4.05;2.17;;;16.50;99.90;;;;;;4887290;29;20101;-77
2023/07/01 05:39:40;;;;;;;;;;;16.50;99.90;;;;;;4880320;29;20059;-75
2023/07/01 05:42:06;;;;;;;3.22;2.35;;;16.60;99.90;;;;;;4887842;29;20267;-77
2023/07/01 05:44:32;;;;;;;5.65;2.40;;;16.60;99.90;;;;;;4869183;29;20168;-76
2023/07/01 05:46:58;;;;;;;2.78;2.10;;;16.60;99.90;;;;;;4892835;29;20503;-77
2023/07/01 05:49:24;;;;;;;3.95;2.00;;;16.70;99.90;;;;;;4893157;29;20063;-76
2023/07/01 05:51:51;;;;;;;3.05;2.28;;;16.70;99.90;;;;;;4883788;29;20044;-77
2023/07/01 05:54:16;;;;;;;4.88;1.98;;;16.70;99.90;;;;;;4887627;29;20416;-77
2023/07/01 05:56:42;;;;;;;4.30;2.20;;;16.70;99.90;;;;;;4886397;29;20052;-76
2023/07/01 05:59:08;;;;;;;3.65;2.13;;;16.70;99.90;;;;;;4888652;29;20179;-76
2023/07/01 06:01:34;;;;;;;3.70;2.00;;;16.70;99.90;;;;;;4889299;29;20491;-76
2023/07/01 06:04:00;;;;;;;3.20;2.10;;;16.70;99.90;;;;;;4867619;29;20036;-76
2023/07/01 06:06:25;;;;;;;;;;;16.70;99.90;;;;;;4886177;29;20056;-76
2023/07/01 06:08:51;;;;;;;2.65;2.10;;;16.80;99.90;;;;;;4882766;29;20364;-76
2023/07/01 06:11:17;;;;;;;5.82;2.30;;;16.70;99.90;;;;;;4885580;29;20044;-76
2023/07/01 06:13:46;;;;;;;3.17;2.13;;;16.70;99.90;;;;;;4893464;29;20052;-76
2023/07/01 06:16:16;;;;;;;5.07;2.17;;;16.70;99.90;;;;;;4874218;29;20380;-76
2023/07/01 06:18:41;;;;;;;3.05;1.90;;;16.70;99.90;;;;;;4880711;29;20052;-77
2023/07/01 06:21:08;;;;;;;3.88;2.40;;;16.70;99.90;;;;;;4885485;29;20048;-76
2023/07/01 06:23:37;;;;;;;3.78;2.00;;;16.60;99.90;;;;;;4879183;29;20040;-76
2023/07/01 06:26:04;;;;;;;2.47;1.70;;;16.50;99.90;;;;;;4887218;29;20075;-76
2023/07/01 06:28:30;;;;;;;3.17;2.00;;;16.60;99.90;;;;;;4877581;29;20036;-76
2023/07/01 06:30:55;;;;;;;3.63;2.47;;;16.50;99.90;;;;;;4870171;29;20040;-76
2023/07/01 06:33:21;;;;;;;4.03;2.33;;;16.40;99.90;;;;;;4879189;29;20060;-76
2023/07/01 06:35:47;;;;;;;3.20;2.28;;;16.40;99.90;;;;;;4879097;29;20131;-76
2023/07/01 06:38:12;;;;;;;3.58;2.15;;;16.40;99.90;;;;;;4886486;29;20196;-76
2023/07/01 06:40:38;;;;;;;3.45;2.20;;;16.40;99.90;;;;;;4878559;29;20052;-76
2023/07/01 06:43:04;;;;;;;4.75;2.25;;;16.40;99.90;;;;;;4868399;29;20084;-76
2023/07/01 06:45:31;;;;;;;2.72;2.20;;;16.50;99.90;;;;;;4880412;29;20441;-76
2023/07/01 06:47:57;;;;;;;4.10;2.22;;;16.50;99.90;;;;;;4885875;29;20095;-76
2023/07/01 06:50:23;;;;;;;3.55;2.22;;;16.40;99.90;;;;;;4866901;29;20051;-76
2023/07/01 06:52:49;;;;;;;3.30;2.10;;;16.40;99.90;;;;;;4886498;29;20044;-76
2023/07/01 06:55:15;;;;;;;2.88;2.05;;;16.40;99.90;;;;;;4880961;29;20111;-76
2023/07/01 06:57:44;;;;;;;3.13;2.40;;;16.50;99.90;;;;;;4872301;29;20043;-76
2023/07/01 07:00:12;;;;;;;2.50;1.77;;;16.50;99.90;;;;;;4882493;29;20055;-76
2023/07/01 07:02:38;;;;;;;1.63;1.40;;;16.60;99.90;;;;;;4890906;29;20060;-76
2023/07/01 07:05:05;;;;;;;2.30;1.83;;;16.50;99.90;;;;;;4889575;29;20051;-74
2023/07/01 07:07:31;;;;;;;3.75;1.80;;;16.60;99.90;;;;;;4890308;29;20072;-74
2023/07/01 07:09:57;;;;;;;3.03;1.92;;;16.50;99.90;;;;;;4894577;29;20044;-74
2023/07/01 07:12:23;;;;;;;2.00;1.80;;;16.50;99.90;;;;;;4871774;29;20079;-76
2023/07/01 07:14:48;;;;;;;2.92;1.88;;;16.60;99.90;;;;;;4895502;29;20487;-75
2023/07/01 07:17:14;;;;;;;3.00;1.70;;;16.60;99.90;;;;;;4887496;29;20542;-77
2023/07/01 07:19:40;;;;;;;1.95;1.70;;;16.50;99.90;;;;;;4875444;29;20048;-77
2023/07/01 07:22:06;;;;;;;2.83;1.70;;;16.60;99.90;;;;;;4890646;29;20092;-77
2023/07/01 07:24:31;;;;;;;2.65;1.80;;;16.70;99.90;;;;;;4860441;29;20516;-77
2023/07/01 07:27:00;;;;;;;2.67;1.75;;;16.70;99.90;;;;;;4890728;29;20040;-76
2023/07/01 07:29:33;;;;;;;1.70;1.30;;;16.60;99.90;;;;;;4887190;29;20084;-77
2023/07/01 07:31:59;;;;;;;2.17;1.73;;;16.60;99.90;;;;;;4886320;29;20080;-74
2023/07/01 07:34:25;;;;;;;1.83;1.50;;;16.70;99.90;;;;;;4891273;29;20052;-77
2023/07/01 07:36:52;;;;;;;1.67;1.50;;;16.80;99.90;;;;;;4881067;29;20036;-77
2023/07/01 07:39:18;;;;;;;1.20;1.10;;;16.80;99.90;;;;;;4882403;29;20091;-77
2023/07/01 07:41:45;;;;;;;2.33;1.63;;;16.80;99.90;;;;;;4871418;29;20079;-77
2023/07/01 07:44:10;;;;;;;1.60;1.50;;;16.80;99.90;;;;;;4881005;29;20049;-77
2023/07/01 07:46:38;;;;;;;1.30;1.17;;;16.70;99.90;;;;;;4882195;29;20036;-77
2023/07/01 07:49:04;;;;;;;1.33;1.23;;;16.80;99.90;;;;;;4882047;29;20488;-77
2023/07/01 07:51:30;;;;;;;0.88;0.80;;;16.90;99.90;;;;;;4880644;29;20568;-77
2023/07/01 07:53:56;;;;;;;1.38;1.10;;;16.80;99.90;;;;;;4893579;29;20440;-77
2023/07/01 07:56:23;;;;;;;1.48;1.38;;;17.00;99.90;;;;;;4893666;29;20073;-77
2023/07/01 07:58:48;;;;;;;1.73;1.13;;;16.90;99.90;;;;;;4884267;29;20055;-77
2023/07/01 08:01:14;;;;;;;1.30;1.20;;;17.00;99.90;;;;;;4876157;29;20559;-77
2023/07/01 08:03:40;;;;;;;1.00;0.90;;;17.10;99.90;;;;;;4890889;29;20051;-77
2023/07/01 08:06:06;;;;;;;;;;;17.30;99.90;;;;;;4896245;29;20051;-77
2023/07/01 08:08:32;;;;;;;1.08;1.00;;;17.40;99.90;;;;;;4857027;29;19919;-77
2023/07/01 08:11:01;;;;;;;1.48;1.30;;;17.60;99.90;;;;;;4894484;29;20047;-78
2023/07/01 08:13:27;;;;;;;1.35;1.20;;;17.60;99.90;;;;;;4872179;29;20051;-78
2023/07/01 08:15:53;;;;;;;;;;;17.50;99.90;;;;;;4882906;29;20040;-77
2023/07/01 08:18:18;;;;;;;1.27;1.17;;;17.60;99.90;;;;;;4886644;29;19958;-77
2023/07/01 08:20:44;;;;;;;;;;;17.40;99.90;;;;;;4897086;29;20051;-78
2023/07/01 08:23:11;;;;;;;1.88;1.20;;;17.50;99.90;;;;;;4891835;29;19966;-77
2023/07/01 08:25:42;;;;;;;1.00;0.88;;;17.60;99.90;;;;;;4887712;29;20036;-77
2023/07/01 08:28:08;;;;;;;1.33;1.20;;;17.60;99.90;;;;;;4886324;29;20043;-77
2023/07/01 08:30:34;;;;;;;0.95;0.90;;;17.40;99.90;;;;;;4891744;29;20044;-77
2023/07/01 08:33:00;;;;;;;1.95;1.13;;;17.50;99.90;;;;;;4882735;29;20082;-78
2023/07/01 08:35:26;;;;;;;;;;;17.50;99.90;;;;;;4886644;29;20465;-77
2023/07/01 08:37:51;;;;;;;2.45;1.42;;;17.50;99.90;;;;;;4881196;29;20386;-78
2023/07/01 08:40:17;;;;;;;;;;;17.50;99.90;;;;;;4896839;29;20048;-77
2023/07/01 08:42:58;;;;;;;1.38;1.27;;;17.50;99.90;;;;;;4896340;29;19923;-77
2023/07/01 08:45:25;;;;;;;1.30;1.13;;;17.70;99.90;;;;;;4893372;29;20036;-77
2023/07/01 08:47:53;;;;;;;1.10;1.00;;;17.70;99.90;;;;;;4883863;29;20503;-77
2023/07/01 08:50:20;;;;;;;1.55;1.33;;;17.60;99.90;;;;;;4882424;29;20039;-78
2023/07/01 08:53:04;;;;;;;1.10;1.00;;;17.90;99.90;;;;;;4880228;29;20841;-77
2023/07/01 08:55:30;;;;;;;1.10;1.00;;;17.80;99.90;;;;;;4881676;29;20728;-77
2023/07/01 08:57:56;;;;;;;1.35;1.10;;;17.90;99.90;;;;;;4894938;29;20083;-77
2023/07/01 09:00:21;;;;;;;;;;;17.90;99.90;;;;;;4896694;29;20150;-77
2023/07/01 09:02:48;;;;;;;1.45;1.20;;;18.10;99.90;;;;;;4894831;29;19927;-77
2023/07/01 09:05:14;;;;;;;0.68;0.68;;;18.00;99.90;;;;;;4887707;29;20045;-77
2023/07/01 09:07:42;;;;;;;;;;;18.20;99.90;;;;;;4892361;29;20044;-77
2023/07/01 09:10:11;;;;;;;0.90;0.90;;;18.20;99.90;;;;;;4880812;29;20283;-78
2023/07/01 09:12:37;;;;;;;1.05;0.90;;;18.30;99.90;;;;;;4895853;29;20044;-77
2023/07/01 09:15:07;;;;;;;;;;;18.30;99.90;;;;;;4871235;29;20052;-77
2023/07/01 09:17:38;;;;;;;1.23;1.05;;;18.40;99.90;;;;;;4863775;29;20292;-78
2023/07/01 09:20:06;;;;;;;0.80;0.80;;;18.30;99.90;;;;;;4894875;29;20124;-77
2023/07/01 09:22:33;;;;;;;0.80;0.80;;;18.40;99.90;;;;;;4878909;29;20191;-77
2023/07/01 09:24:59;;;;;;;0.80;0.80;;;18.50;99.90;;;;;;4865893;29;20036;-77
2023/07/01 09:27:25;;;;;;;;;;;18.60;99.90;;;;;;4896403;29;20051;-77
2023/07/01 09:29:52;;;;;;;0.90;0.90;;;18.50;99.90;;;;;;4884814;29;20063;-77
2023/07/01 09:32:28;;;;;;;1.02;0.80;;;18.40;99.90;;;;;;4864692;29;20116;-77
2023/07/01 09:34:58;;;;;;;;;;;18.40;99.90;;;;;;4891033;29;20056;-77
2023/07/01 09:37:25;;;;;;;0.70;0.70;;;18.50;99.90;;;;;;4891291;29;20009;-77
2023/07/01 09:39:51;;;;;;;0.55;0.55;;;18.50;99.90;;;;;;4879744;29;20465;-77
2023/07/01 09:42:18;;;;;;;;;;;18.70;99.90;;;;;;4864066;29;20040;-78
2023/07/01 09:45:09;;;;;;;0.70;0.70;;;18.60;99.90;;;;;;4890412;29;19930;-78
2023/07/01 09:47:38;;;;;;;0.90;0.90;;;18.50;99.90;;;;;;4881138;29;21228;-78
2023/07/01 09:50:05;;;;;;;1.05;0.80;;;18.40;99.90;;;;;;4910586;29;20075;-78
2023/07/01 09:52:32;;;;;;;0.60;0.60;;;18.40;99.90;;;;;;4895451;29;20055;-78
2023/07/01 09:55:02;;;;;;;0.68;0.68;;;18.40;99.90;;;;;;4883867;29;20056;-78
2023/07/01 09:57:28;;;;;;;0.95;0.75;;;18.50;99.90;;;;;;4865838;29;20052;-78
2023/07/01 09:59:54;;;;;;;0.57;0.50;;;18.60;99.90;;;;;;4877264;29;20044;-78
2023/07/01 10:02:20;;;;;;;;;;;18.60;99.90;;;;;;4865957;29;20064;-78
2023/07/01 10:04:46;;;;;;;0.57;0.57;;;18.50;99.90;;;;;;4889579;29;20355;-77
2023/07/01 10:07:12;;;;;;;0.40;0.40;;;18.60;99.90;;;;;;4878984;29;20051;-77
2023/07/01 10:09:44;;;;;;;;;;;18.50;99.90;;;;;;4870493;29;20044;-77
2023/07/01 10:12:13;;;;;;;0.65;0.50;;;18.50;99.90;;;;;;4894180;29;20018;-78
2023/07/01 10:14:40;;;;;;;0.43;0.43;;;18.60;99.90;;;;;;4893001;29;20036;-77
2023/07/01 10:17:06;;;;;;;0.52;0.52;;;18.50;99.90;;;;;;4888000;29;20051;-77
2023/07/01 10:19:33;;;;;;;;;;;18.50;99.90;;;;;;4886538;29;20048;-77
2023/07/01 10:22:27;;;;;;;0.50;0.47;;;18.30;99.90;;;;;;4888262;29;19923;-77
2023/07/01 10:25:01;;;;;;;1.73;0.60;;;18.40;99.90;;;;;;4894308;29;20131;-77
2023/07/01 10:27:42;;;;;;;0.68;0.30;;;18.30;99.90;;;;;;4881932;29;20123;-77
2023/07/01 10:30:09;;;;;;;0.85;0.50;;;18.60;99.90;;;;;;4887939;29;20048;-77
2023/07/01 10:32:35;;;;;;;0.50;0.50;;;18.60;99.90;;;;;;4882101;29;20056;-77
2023/07/01 10:35:03;;;;;;;;;;;18.70;99.90;;;;;;4889646;29;20396;-77
2023/07/01 10:37:31;;;;;;;1.13;0.70;;;18.90;99.90;;;;;;4898204;29;19925;-77
2023/07/01 10:39:59;;;;;;;0.85;0.50;;;18.90;99.90;;;;;;4891600;29;20048;-77
2023/07/01 10:42:32;;;;;;;1.17;0.63;;;19.00;99.90;;;;;;4883306;29;20437;-77
2023/07/01 10:45:10;;;;;;;1.27;0.80;;;19.20;99.90;;;;;;4893654;29;20456;-77
2023/07/01 10:48:02;;;;;;;1.52;0.90;;;19.10;99.90;;;;;;4898429;29;20050;-77
2023/07/01 10:50:28;;;;;;;1.13;0.95;;;19.00;99.90;;;;;;4877882;29;20048;-77
2023/07/01 10:52:57;;;;;;;;;;;18.90;99.90;;;;;;4898779;29;20111;-77
2023/07/01 10:55:43;;;;;;;0.60;0.60;;;19.10;99.90;;;;;;4892140;29;20002;-77
2023/07/01 10:58:23;;;;;;;0.80;0.80;;;19.00;99.90;;;;;;4910262;29;20072;-77
2023/07/01 11:00:51;;;;;;;0.70;0.70;;;19.10;99.90;;;;;;4884002;29;20036;-77
2023/07/01 11:03:35;;;;;;;1.85;0.80;;;19.00;99.90;;;;;;4895267;29;20056;-78
2023/07/01 11:06:06;;;;;;;1.05;0.80;;;18.90;99.90;;;;;;4872507;29;20135;-77
2023/07/01 11:08:50;;;;;;;1.15;0.98;;;18.90;99.90;;;;;;4881682;29;20036;-77
2023/07/01 11:11:20;;;;;;;1.73;1.17;;;18.70;99.90;;;;;;4886419;29;20204;-77
2023/07/01 11:13:59;;;;;;;1.25;1.00;;;18.40;99.90;;;;;;4881431;29;20045;-77
2023/07/01 11:16:26;;;;;;;2.40;1.30;;;18.30;99.90;;;;;;4893126;29;20052;-77
2023/07/01 11:18:53;;;;;;;1.35;1.00;;;18.20;99.90;;;;;;4896995;29;20055;-77
2023/07/01 11:21:29;;;;;;;1.35;1.13;;;18.20;99.90;;;;;;4887736;29;20075;-77
2023/07/01 11:23:55;;;;;;;0.88;0.80;;;18.40;99.90;;;;;;4865456;29;20104;-77
2023/07/01 11:26:24;;;;;;;1.40;1.10;;;18.50;99.90;;;;;;4891270;29;20458;-77
2023/07/01 11:28:51;;;;;;;1.90;1.52;;;18.70;99.90;;;;;;4896290;29;20052;-77
2023/07/01 11:31:21;;;;;;;3.80;1.48;;;18.60;99.90;;;;;;4888608;29;20474;-77
2023/07/01 11:33:55;;;;;;;2.78;1.80;;;18.70;99.90;;;;;;4880984;29;20405;-77
2023/07/01 11:36:34;;;;;;;2.40;1.60;;;18.40;99.90;;;;;;4889864;29;20054;-77
2023/07/01 11:39:13;;;;;;;2.83;1.88;;;18.30;99.90;;;;;;4886403;29;20519;-77
2023/07/01 11:41:41;;;;;;;3.13;2.22;;;18.40;99.90;;;;;;4886775;29;20044;-77
2023/07/01 11:44:18;;;;;;;3.97;2.33;;;18.30;99.90;;;;;;4880603;29;20045;-77
2023/07/01 11:46:44;;;;;;;2.08;1.60;;;18.20;99.90;;;;;;4885302;29;20036;-76
2023/07/01 11:49:18;;;;;;;3.70;1.90;;;18.30;99.90;;;;;;4885905;29;20051;-77
2023/07/01 11:51:49;;;;;;;3.40;1.73;;;18.40;99.90;;;;;;4892746;29;20108;-77
2023/07/01 11:54:16;;;;;;;4.03;2.55;;;18.40;99.90;;;;;;4889337;29;20500;-76
2023/07/01 11:56:44;;;;;;;2.10;1.65;;;18.50;99.90;;;;;;4887864;29;20131;-76
2023/07/01 11:59:10;;;;;;;2.78;2.40;;;18.70;99.90;;;;;;4885094;29;20052;-73
2023/07/01 12:01:39;;;;;;;;;;;18.70;99.90;;;;;;4888640;29;21450;-73
2023/07/01 12:04:16;;;;;;;3.63;2.30;;;18.80;99.90;;;;;;4869962;29;19927;-73
2023/07/01 12:06:41;;;;;;;2.78;2.33;;;18.90;99.90;;;;;;4886210;29;20051;-73
2023/07/01 12:09:08;;;;;;;;;;;19.20;99.90;;;;;;4866675;29;20040;-73
2023/07/01 12:11:47;;;;;;;3.75;2.63;;;19.10;99.90;;;;;;4871916;29;20000;-73
2023/07/01 12:14:21;;;;;;;2.85;2.40;;;19.20;99.90;;;;;;4887015;29;20053;-74
2023/07/01 12:16:49;;;;;;;2.35;1.75;;;19.20;99.90;;;;;;4888957;29;20048;-74
2023/07/01 12:19:20;;;;;;;1.60;1.40;;;19.40;99.90;;;;;;4894273;29;20071;-77
2023/07/01 12:21:46;;;;;;;3.50;2.90;;;19.50;99.90;;;;;;4891535;29;20078;-77
2023/07/01 12:24:23;;;;;;;4.05;3.17;;;19.60;99.90;;;;;;4882394;29;20594;-77
2023/07/01 12:26:54;;;;;;;4.20;3.28;;;19.60;99.90;;;;;;4891150;29;20122;-77
2023/07/01 12:29:22;;;;;;;4.07;2.58;;;19.60;99.90;;;;;;4888899;29;20060;-76
2023/07/01 12:31:48;;;;;;;5.13;2.88;;;19.70;99.90;;;;;;4889683;29;20044;-77
2023/07/01 12:34:14;;;;;;;;;;;19.80;99.90;;;;;;4886427;29;20052;-77
2023/07/01 12:36:43;;;;;;;3.28;2.17;;;20.00;99.90;;;;;;4888452;29;19998;-76
2023/07/01 12:39:09;;;;;;;2.47;1.67;;;20.10;99.90;;;;;;4885139;29;20112;-74
2023/07/01 12:41:35;;;;;;;3.85;1.98;;;20.50;99.90;;;;;;4873901;29;20756;-75
2023/07/01 12:44:06;;;;;;;3.53;2.17;;;20.40;99.90;;;;;;4887599;29;20045;-76
2023/07/01 12:46:32;;;;;;;2.75;1.80;;;20.50;99.90;;;;;;4895707;29;20472;-76
2023/07/01 12:49:00;;;;;;;4.43;2.47;;;20.60;99.90;;;;;;4888756;29;20048;-76
2023/07/01 12:51:27;;;;;;;3.20;2.05;;;20.70;99.90;;;;;;4885178;29;20044;-75
2023/07/01 12:53:57;;;;;;;4.90;2.17;;;20.60;99.90;;;;;;4892796;29;20058;-76
2023/07/01 12:56:25;;;;;;;2.13;1.42;;;20.40;99.90;;;;;;4872182;29;20056;-76
2023/07/01 12:58:53;;;;;;;4.25;1.80;;;20.30;82.50;;;;;;4890679;29;20071;-77